Hlavní strana
METAR-TAF:

METAR-TAF

Letiště :

Ammán, Jordánsko

zeměpisná šířka: 31-59N, zeměpisná délka: 035-59E, výška: 767 m

Aktuální stav počasí

Zpráva byla vytvořena před 48 minutami, v 10:00 UTC
Západní vítr 11 kt
Teplota 29°C
Vlhkost vzduchu 40%
Tlak 1010 hPa
Viditelnost: 5000 m
Skoro jasno ve výšce 3000 ft
zákal

METAR: OJAM 221000Z 27011KT 5000 HZ FEW030 29/14 Q1010 NOSIG

Čas: 13:48 (10:48 UTC)

Předpověď počasí

Zpráva byla vytvořena před 5 hodinami a 50 minutami, v 04:58 UTC
Předpověď platná od 22 v 06 UTC do 23 v 12 UTC
Západoseverozápadní vítr 4 kt
Viditelnost: 5000 m
Polojasno ve výšce 3000 ft
zákal
Změna
od 22 v 07 UTC do 22 v 09 UTC
Západoseverozápadní vítr 14 kt
Dočasný
od 22 v 11 UTC do 22 v 16 UTC
Viditelnost: 4000 m
rozsáhlý prach
Změna
od 22 v 18 UTC do 22 v 20 UTC
Západní vítr 5 kt
Viditelnost: 6000 m
Skoro jasno ve výšce 3000 ft

TAF: OJAM 220458Z 2206/2312 29004KT 5000 HZ SCT030 BECMG 2207/2209 30014KT TEMPO 2211/2216 4000 DU BECMG 2218/2220 26005KT 6000 FEW030

Stav a předpovědi počasí z více než 4 000 letišť (zprávy METAR a TAF).

Červené a žluté tečky na mapě představují dostupné meteorologické stanice.

Když kurzor umístíte na tečku, zobrazí se název stanice.

Pak kliknutím zobrazíte stav a předpověď počasí.

Chcete-li změnit mapu, kliknutím na zelené tlačítko se znaménkem +mapu přiblížíte, kliknutím na zelené tlačítko se znaménkem – mapu oddálíte a kliknutím na zelené šipky přejdete na sousední mapy.


METAR-TAF: